Forside
METAR-TAF:

METAR-TAF

Lufthavne :

Detroit, Michigan, USA

Breddekreds: 42-24-33N, længdekreds: 083-00-36W, højde: 191 m

Aktuelle vejr

Denne rapport blev lavet for 30 minutter siden, kl. 13:53 UTC
Vind 6 kt fra nordnordøst
Temperatur 5°C
Fugtighed 81%
Tryk 1016 hPa
Sigt: 16.1 km
Overskyet i en højde af 1100 ft

METAR: KDET 311353Z 03006KT 10SM OVC011 05/02 A3001 RMK AO2 SLP167 T00500017

Tid: 10:23 (14:23 UTC)

Vejrudsigter

Denne rapport blev lavet for 3 timer og 3 minutter siden, kl. 11:20 UTC
Foreløbig gælder fra 31 på 12 UTC til 01 på 12 UTC
Vind 7 kt fra nordnordøst
Sigt: 10 km
Overskyet i en højde af 1200 ft
Fra 31 på 2000 UTC
Vind 7 kt fra nordnordøst
Sigt: 10 km
Brudte skyer i en højde af 2200 ft
Overskyet i en højde af 3500 ft
Fra 01 på 0200 UTC
Vind 6 kt fra nordnordøst
Sigt: 10 km
Overskyet i en højde af 1500 ft

TAF: KDET 311120Z 3112/0112 02007KT P6SM OVC012 FM312000 03007KT P6SM BKN022 OVC035 FM010200 03006KT P6SM OVC015

Vejrobservationer og prognoser fra mere end 4000 lufthavne (METAR og TAF).

De gule og røde prikker repræsenterer de meteorologiske stationer.

Flyt musen over at se navnet på stationen.

Så klik over at se vejr observationer og prognoser.

At skifte det kort: Klik på de grønne knapper med et sort kors for at zoome ind; på den grønne knap med en bindestreg for at zoome ud; eller på de grønne pile for tilstødende kort.


METAR-TAF: